Terminal Aerodrome Forecast
Issued by NWS

Home | Current Version | Previous Version | Text Only | Print | Product List | Glossary On
Versions: 1 2 3 4 5 6 7 8 9 10 11 12 13 14 15 16 17 18 19 20
000
FTUS43 KDLH 250710 AAA
TAFHIB
TAF AMD
KHIB 250710Z 2507/2606 30010G25KT P6SM VCSH BKN035
     FM251000 31012KT P6SM SCT035
     FM251800 31009KT P6SM FEW250
     FM260000 VRB02KT P6SM SCT250=

USA.gov is the U.S. government's official web portal to all federal, state and local government web resources and services.